Terminal Aerodrome Forecast
Issued by NWS Twin Cities, MN

Home | Current Version | Previous Version | Graphics & Text | Print | Product List | Glossary On
Versions: 1 2 3 4 5 6 7 8 9 10 11 12 13 14 15 16 17 18 19 20 21 22 23 24 25 26
000
FTUS43 KMPX 181508 AAB
TAFMSP
TAF AMD
KMSP 181508Z 1815/1918 26007KT P6SM VCSH SCT060 BKN100
     FM181700 27006KT 6SM -SHRA VCTS SCT030 BKN050CB
      TEMPO 1818/1821 3SM +TSRA BR SCT015 OVC025CB
     FM182200 35006KT P6SM SCT050
     FM190800 03006KT P6SM FEW250=

USA.gov is the U.S. government's official web portal to all federal, state and local government web resources and services.